Kingston, Missouri
Current Conditions -  °F | °C
As of 10:55 AM on Thursday 23 Oct 2014 (Local Time) from KGPH Reporting Station
NA  
Wind Chill: 59°   Ceiling: NA
Heat Index: 59°   Visibility: 10mi
Dew Point: 59°   Wind: 3mph
Humidity: 100%   Direction: 160°SSE
Pressure: 30.11"   Gusts: NA
Location:  39.64°N, 94.04°W
Report Text: KGPH 231555Z AUTO 16003KT 10SM 15/15 A3011 RMK AO2
Loading
Personal Weather Stations






























Interactive Weather Map
Tropical Storm Tracking
New forecast layout! Learn more

10-Day Weather Forecast

Advertisements
Track Severe Weather on mobile